Terminal Aerodrome Forecast
Issued by NWS

Home | Current Version | Previous Version | Text Only | Print | Product List | Glossary On
Versions: 1 2 3 4 5 6 7 8 9 10 11 12 13 14
000
FTUS45 KFGZ 031120
TAFSEZ
TAF
KSEZ 031120Z 0312/0412 04008KT P6SM SCT200
     FM031800 19010G16KT P6SM BKN070 BKN200
     FM040130 VRB06KT P6SM SCT080 BKN200
      AMD NOT SKED=

USA.gov is the U.S. government's official web portal to all federal, state and local government web resources and services.